createdAt,value
2022-09-01T00:00:54.674Z,6.30
2022-09-01T00:01:56.868Z,6.45
2022-09-01T00:02:58.503Z,5.97
2022-09-01T00:04:04.272Z,6.30
2022-09-01T00:05:07.460Z,6.10
2022-09-01T00:06:10.269Z,5.80
2022-09-01T00:07:13.990Z,6.95
2022-09-01T00:08:15.507Z,6.03
2022-09-01T00:09:22.422Z,6.53
2022-09-01T00:10:24.115Z,9.70
2022-09-01T00:11:27.611Z,7.18
2022-09-01T00:12:30.770Z,5.55
2022-09-01T00:13:33.922Z,6.68
2022-09-01T00:14:41.542Z,5.75
2022-09-01T00:15:43.620Z,5.55
2022-09-01T00:16:45.183Z,5.82
2022-09-01T00:17:49.381Z,8.27
2022-09-01T00:18:53.406Z,5.38
2022-09-01T00:19:54.962Z,7.00
2022-09-01T00:20:59.207Z,5.25
2022-09-01T00:22:01.784Z,8.13
2022-09-01T00:23:03.503Z,5.40
2022-09-01T00:24:05.725Z,6.25
2022-09-01T00:25:08.150Z,6.60
2022-09-01T00:26:09.709Z,5.95
2022-09-01T00:27:11.574Z,5.97
2022-09-01T00:28:14.506Z,5.65
2022-09-01T00:29:16.242Z,5.97
2022-09-01T00:30:21.962Z,6.10
2022-09-01T00:31:24.478Z,6.65
2022-09-01T00:32:26.761Z,5.95
2022-09-01T00:33:28.776Z,7.15
2022-09-01T00:34:31.183Z,6.25
2022-09-01T00:35:37.089Z,6.93
2022-09-01T00:36:39.040Z,6.53
2022-09-01T00:37:40.696Z,6.05
2022-09-01T00:38:42.835Z,7.85
2022-09-01T00:39:44.383Z,6.40
2022-09-01T00:40:46.016Z,7.20
2022-09-01T00:41:47.988Z,6.18
2022-09-01T00:42:49.815Z,5.80
2022-09-01T00:44:00.180Z,6.32
2022-09-01T00:45:01.644Z,6.45
2022-09-01T00:46:04.652Z,6.78
2022-09-01T00:47:07.114Z,7.80
2022-09-01T00:48:09.485Z,8.32
2022-09-01T00:49:17.761Z,6.60
2022-09-01T00:50:20.847Z,6.47
2022-09-01T00:51:22.691Z,5.75
2022-09-01T00:52:48.197Z,6.28
2022-09-01T00:53:49.992Z,5.50
2022-09-01T00:54:58.136Z,6.55
2022-09-01T00:56:00.525Z,5.78
2022-09-01T00:57:04.266Z,5.82
2022-09-01T00:58:19.456Z,5.82
2022-09-01T00:59:23.738Z,5.88
2022-09-01T01:00:29.878Z,7.43
2022-09-01T01:01:31.600Z,7.53
2022-09-01T01:02:33.424Z,5.53
2022-09-01T01:03:35.922Z,6.43
2022-09-01T01:04:37.561Z,6.93
2022-09-01T01:05:46.766Z,7.47
2022-09-01T01:06:58.783Z,6.47
2022-09-01T01:08:03.861Z,5.75
2022-09-01T01:09:05.631Z,6.63
2022-09-01T01:10:07.668Z,5.95
2022-09-01T01:11:19.614Z,6.10
2022-09-01T01:12:21.284Z,5.45
2022-09-01T01:13:26.025Z,6.10
2022-09-01T01:14:31.957Z,6.88
2022-09-01T01:15:33.634Z,10.57
2022-09-01T01:16:35.923Z,6.00
2022-09-01T01:17:37.587Z,6.25
2022-09-01T01:18:39.387Z,5.68
2022-09-01T01:20:07.151Z,5.75
2022-09-01T01:21:43.376Z,6.53
2022-09-01T01:23:03.601Z,6.18
2022-09-01T01:24:23.470Z,6.28
2022-09-01T01:25:25.571Z,6.10
2022-09-01T01:26:27.297Z,5.70
2022-09-01T01:27:33.711Z,6.45
2022-09-01T01:28:44.749Z,7.13
2022-09-01T01:29:47.712Z,6.50
2022-09-01T01:30:52.664Z,5.80
2022-09-01T01:31:54.325Z,6.43
2022-09-01T01:32:58.396Z,6.60
2022-09-01T01:34:01.101Z,5.68
2022-09-01T01:35:05.875Z,7.20
2022-09-01T01:36:14.268Z,6.35
2022-09-01T01:37:15.756Z,5.90
2022-09-01T01:38:20.026Z,5.60
2022-09-01T01:39:28.710Z,6.55
2022-09-01T01:40:30.975Z,6.15
2022-09-01T01:41:35.480Z,5.50
2022-09-01T01:42:37.932Z,6.75
2022-09-01T01:43:40.702Z,7.07
2022-09-01T01:44:42.589Z,6.68
2022-09-01T01:45:44.122Z,5.88
2022-09-01T01:46:50.267Z,6.00
2022-09-01T01:47:53.550Z,6.30
2022-09-01T01:48:55.818Z,7.22
2022-09-01T01:49:57.946Z,5.55
2022-09-01T01:50:59.673Z,6.70
2022-09-01T01:52:01.662Z,5.93
2022-09-01T01:53:10.942Z,7.03
2022-09-01T01:54:14.383Z,6.95
2022-09-01T01:55:19.328Z,6.28
2022-09-01T01:56:25.522Z,6.68
2022-09-01T01:57:31.897Z,6.75
2022-09-01T01:58:34.900Z,6.60
2022-09-01T01:59:38.963Z,5.50
2022-09-01T02:00:42.887Z,6.35
2022-09-01T02:01:49.389Z,5.72
2022-09-01T02:02:54.794Z,5.95
2022-09-01T02:04:00.234Z,6.10
2022-09-01T02:05:01.961Z,6.30
2022-09-01T02:06:07.124Z,6.97
2022-09-01T02:07:11.964Z,6.50
2022-09-01T02:08:15.652Z,5.93
2022-09-01T02:09:21.081Z,6.35
2022-09-01T02:10:24.737Z,6.32
2022-09-01T02:11:26.750Z,5.82
2022-09-01T02:12:28.269Z,6.30
2022-09-01T02:13:32.798Z,6.05
2022-09-01T02:14:34.623Z,5.88
2022-09-01T02:15:45.601Z,7.55
2022-09-01T02:16:47.704Z,6.13
2022-09-01T02:17:49.704Z,6.15
2022-09-01T02:18:51.535Z,5.80
2022-09-01T02:19:57.060Z,5.90
2022-09-01T02:21:01.557Z,6.65
2022-09-01T02:22:03.054Z,6.07
2022-09-01T02:23:10.848Z,6.32
2022-09-01T02:24:12.901Z,6.45
2022-09-01T02:25:16.939Z,5.90
2022-09-01T02:26:19.053Z,5.60
2022-09-01T02:27:25.864Z,6.72
2022-09-01T02:28:28.701Z,6.07
2022-09-01T02:29:30.272Z,7.75
2022-09-01T02:30:33.467Z,6.85
2022-09-01T02:31:39.303Z,6.75
2022-09-01T02:32:41.884Z,7.20
2022-09-01T02:33:47.154Z,5.95
2022-09-01T02:34:53.676Z,7.10
2022-09-01T02:36:00.926Z,6.47
2022-09-01T02:37:02.941Z,6.50
2022-09-01T02:38:05.505Z,5.97
2022-09-01T02:39:08.129Z,6.03
2022-09-01T02:40:10.568Z,5.68
2022-09-01T02:41:14.677Z,6.38
2022-09-01T02:42:16.322Z,6.45
2022-09-01T02:43:20.575Z,6.20
2022-09-01T02:44:23.091Z,6.85
2022-09-01T02:45:24.736Z,6.10
2022-09-01T02:46:26.593Z,7.70
2022-09-01T02:47:28.560Z,6.10
2022-09-01T02:48:37.232Z,5.85
2022-09-01T02:49:40.745Z,5.90
2022-09-01T02:50:42.263Z,8.68
2022-09-01T02:51:46.042Z,17.38
2022-09-01T02:52:52.312Z,16.65
2022-09-01T02:53:54.278Z,19.55
2022-09-01T02:54:55.750Z,22.10
2022-09-01T02:55:59.454Z,12.55
2022-09-01T02:57:01.487Z,9.40
2022-09-01T02:58:03.717Z,8.27
2022-09-01T02:59:05.695Z,7.88
2022-09-01T03:00:20.699Z,6.80
2022-09-01T03:02:28.827Z,5.70
2022-09-01T03:03:30.280Z,6.50
2022-09-01T03:04:35.152Z,6.05
2022-09-01T03:05:39.190Z,5.50
2022-09-01T03:06:41.226Z,6.30
2022-09-01T03:07:42.683Z,8.63
2022-09-01T03:08:44.146Z,6.88
2022-09-01T03:09:45.713Z,6.30
2022-09-01T03:10:47.366Z,6.28
2022-09-01T03:11:51.868Z,6.78
2022-09-01T03:12:54.786Z,5.88
2022-09-01T03:14:58.484Z,6.50
2022-09-01T03:15:59.971Z,6.50
2022-09-01T03:17:01.932Z,6.53
2022-09-01T03:18:05.549Z,6.70
2022-09-01T03:19:09.478Z,7.32
2022-09-01T03:20:11.197Z,6.28
2022-09-01T03:21:17.785Z,6.05
2022-09-01T03:22:19.687Z,6.65
2022-09-01T03:23:21.210Z,6.70
2022-09-01T03:24:23.167Z,6.93
2022-09-01T03:25:25.467Z,6.60
2022-09-01T03:26:27.057Z,6.57
2022-09-01T03:27:28.994Z,6.65
2022-09-01T03:28:30.860Z,6.20
2022-09-01T03:29:32.376Z,6.78
2022-09-01T03:30:38.941Z,7.70
2022-09-01T03:31:40.477Z,7.03
2022-09-01T03:32:42.382Z,7.82
2022-09-01T03:33:44.034Z,7.30
2022-09-01T03:34:45.519Z,6.90
2022-09-01T03:35:47.972Z,7.50
2022-09-01T03:36:50.907Z,5.50
2022-09-01T03:37:52.982Z,6.15
2022-09-01T03:38:55.855Z,6.80
2022-09-01T03:41:03.712Z,6.68
2022-09-01T03:42:05.369Z,6.45
2022-09-01T03:43:14.377Z,6.25
2022-09-01T03:45:20.408Z,7.07
2022-09-01T03:46:22.740Z,7.38
2022-09-01T03:47:24.251Z,6.15
2022-09-01T03:48:29.405Z,6.70
2022-09-01T03:49:30.862Z,7.72
2022-09-01T03:50:32.585Z,7.10
2022-09-01T03:51:34.964Z,6.97
2022-09-01T03:52:36.998Z,6.47
2022-09-01T03:53:39.517Z,6.57
2022-09-01T03:54:41.186Z,6.80
2022-09-01T03:55:45.512Z,6.05
2022-09-01T03:56:47.779Z,5.93
2022-09-01T03:57:51.136Z,6.80
2022-09-01T03:58:54.929Z,8.20
2022-09-01T03:59:56.852Z,6.75
2022-09-01T04:01:01.954Z,7.95
2022-09-01T04:02:03.944Z,7.72
2022-09-01T04:03:07.830Z,6.32
2022-09-01T04:04:14.230Z,8.30
2022-09-01T04:05:16.201Z,6.80
2022-09-01T04:06:19.410Z,7.63
2022-09-01T04:07:20.896Z,7.65
2022-09-01T04:08:33.062Z,6.75
2022-09-01T04:09:35.317Z,7.35
2022-09-01T04:10:47.836Z,6.97
2022-09-01T04:11:55.816Z,7.72
2022-09-01T04:12:59.102Z,6.88
2022-09-01T04:14:01.750Z,7.78
2022-09-01T04:15:04.053Z,6.60
2022-09-01T04:16:10.774Z,7.95
2022-09-01T04:17:31.107Z,7.38
2022-09-01T04:18:32.894Z,7.07
2022-09-01T04:19:36.985Z,6.63
2022-09-01T04:20:48.552Z,6.00
2022-09-01T04:21:51.717Z,7.38
2022-09-01T04:22:53.508Z,8.27
2022-09-01T04:23:58.387Z,9.60
2022-09-01T04:24:59.872Z,7.47
2022-09-01T04:26:09.070Z,7.38
2022-09-01T04:27:11.943Z,7.10
2022-09-01T04:28:22.981Z,7.32
2022-09-01T04:29:28.708Z,6.70
2022-09-01T04:30:33.492Z,6.95
2022-09-01T04:31:37.988Z,7.35
2022-09-01T04:32:40.343Z,7.55
2022-09-01T04:33:44.941Z,7.35
2022-09-01T04:34:46.423Z,7.93
2022-09-01T04:35:48.122Z,7.13
2022-09-01T04:36:55.452Z,8.07
2022-09-01T04:37:56.901Z,7.43
2022-09-01T04:39:00.983Z,6.93
2022-09-01T04:40:03.676Z,6.80
2022-09-01T04:41:06.797Z,7.85
2022-09-01T04:42:09.362Z,6.88
2022-09-01T04:43:11.010Z,7.63
2022-09-01T04:44:16.304Z,7.22
2022-09-01T04:45:21.193Z,7.68
2022-09-01T04:46:23.381Z,7.70
2022-09-01T04:47:35.357Z,6.75
2022-09-01T04:48:38.444Z,7.40
2022-09-01T04:49:40.286Z,6.95
2022-09-01T04:50:41.781Z,7.03
2022-09-01T04:51:51.204Z,8.32
2022-09-01T04:52:56.375Z,6.55
2022-09-01T04:53:58.350Z,6.85
2022-09-01T04:54:59.795Z,9.00
2022-09-01T04:56:04.588Z,6.82
2022-09-01T04:57:07.077Z,7.82
2022-09-01T04:58:10.314Z,7.63
2022-09-01T04:59:14.433Z,8.07
2022-09-01T05:00:22.641Z,7.13
2022-09-01T05:01:26.761Z,6.90
2022-09-01T05:02:29.016Z,6.95
2022-09-01T05:03:32.200Z,6.85
2022-09-01T05:04:34.289Z,6.50
2022-09-01T05:05:39.808Z,8.57
2022-09-01T05:06:44.016Z,7.95
2022-09-01T05:07:45.530Z,8.20
2022-09-01T05:08:47.006Z,7.97
2022-09-01T05:09:49.557Z,8.60
2022-09-01T05:10:53.316Z,6.78
2022-09-01T05:11:56.439Z,6.95
2022-09-01T05:12:57.945Z,7.53
2022-09-01T05:13:59.438Z,7.50
2022-09-01T05:15:06.667Z,8.20
2022-09-01T05:16:12.944Z,6.63
2022-09-01T05:17:15.058Z,7.78
2022-09-01T05:18:27.778Z,8.50
2022-09-01T05:19:30.060Z,7.20
2022-09-01T05:20:32.028Z,6.38
2022-09-01T05:21:33.536Z,8.38
2022-09-01T05:22:35.653Z,7.10
2022-09-01T05:23:40.387Z,7.38
2022-09-01T05:24:42.468Z,8.27
2022-09-01T05:25:44.605Z,6.93
2022-09-01T05:26:47.495Z,8.73
2022-09-01T05:27:52.771Z,6.82
2022-09-01T05:29:01.551Z,6.45
2022-09-01T05:30:08.825Z,8.40
2022-09-01T05:31:10.611Z,7.65
2022-09-01T05:32:12.661Z,7.95
2022-09-01T05:33:21.755Z,8.13
2022-09-01T05:34:27.152Z,6.80
2022-09-01T05:35:31.684Z,7.60
2022-09-01T05:36:34.676Z,7.68
2022-09-01T05:37:40.455Z,9.40
2022-09-01T05:38:42.308Z,9.02
2022-09-01T05:39:44.279Z,7.53
2022-09-01T05:40:56.399Z,7.07
2022-09-01T05:41:59.075Z,7.53
2022-09-01T05:43:01.019Z,8.18
2022-09-01T05:44:08.145Z,7.95
2022-09-01T05:45:11.868Z,8.48
2022-09-01T05:46:16.907Z,7.38
2022-09-01T05:47:20.989Z,7.55
2022-09-01T05:48:23.707Z,6.07
2022-09-01T05:49:26.863Z,6.65
2022-09-01T05:50:28.546Z,8.13
2022-09-01T05:51:44.312Z,6.43
2022-09-01T05:52:48.113Z,7.00
2022-09-01T05:53:55.111Z,7.93
2022-09-01T05:54:57.841Z,5.97
2022-09-01T05:56:00.469Z,7.57
2022-09-01T05:57:23.315Z,6.30
2022-09-01T05:58:26.843Z,7.78
2022-09-01T05:59:31.570Z,7.25
2022-09-01T06:00:34.826Z,6.50
2022-09-01T06:01:41.017Z,7.05
2022-09-01T06:02:43.334Z,6.25
2022-09-01T06:03:45.043Z,6.25
2022-09-01T06:04:47.153Z,6.18
2022-09-01T06:05:52.775Z,6.18
2022-09-01T06:07:13.635Z,6.43
2022-09-01T06:08:18.913Z,5.75
2022-09-01T06:09:23.378Z,5.97
2022-09-01T06:10:24.920Z,5.45
2022-09-01T06:11:26.944Z,5.97
2022-09-01T06:12:29.341Z,5.72
2022-09-01T06:13:30.773Z,6.00
2022-09-01T06:14:32.665Z,5.25
2022-09-01T06:15:39.003Z,5.07
2022-09-01T06:16:40.525Z,6.28
2022-09-01T06:17:42.038Z,5.55
2022-09-01T06:18:43.793Z,5.38
2022-09-01T06:19:46.009Z,6.35
2022-09-01T06:20:49.527Z,5.75
2022-09-01T06:21:51.349Z,5.45
2022-09-01T06:22:53.626Z,5.70
2022-09-01T06:23:57.254Z,6.50
2022-09-01T06:25:02.384Z,5.55
2022-09-01T06:26:05.580Z,6.85
2022-09-01T06:27:09.928Z,4.97
2022-09-01T06:28:13.103Z,6.35
2022-09-01T06:29:15.496Z,6.38
2022-09-01T06:30:23.855Z,6.13
2022-09-01T06:31:30.174Z,6.07
2022-09-01T06:32:33.765Z,5.90
2022-09-01T06:33:36.115Z,5.53
2022-09-01T06:34:43.560Z,5.60
2022-09-01T06:35:47.171Z,7.03
2022-09-01T06:36:51.272Z,5.80
2022-09-01T06:37:53.171Z,7.75
2022-09-01T06:38:55.233Z,6.10
2022-09-01T06:39:57.601Z,5.10
2022-09-01T06:41:04.275Z,5.43
2022-09-01T06:42:06.794Z,5.72
2022-09-01T06:43:09.961Z,6.60
2022-09-01T06:44:14.560Z,5.65
2022-09-01T06:45:18.417Z,6.95
2022-09-01T06:46:21.892Z,5.85
2022-09-01T06:47:24.304Z,6.70
2022-09-01T06:48:25.850Z,6.15
2022-09-01T06:49:33.168Z,7.05
2022-09-01T06:51:56.266Z,8.07
2022-09-01T06:55:38.581Z,5.68
2022-09-01T06:58:09.755Z,5.88
2022-09-01T06:59:15.639Z,4.70
2022-09-01T07:00:21.144Z,6.60
2022-09-01T07:01:24.148Z,5.75
2022-09-01T07:03:51.467Z,5.88
2022-09-01T07:04:53.498Z,5.38
2022-09-01T07:06:01.393Z,4.95
2022-09-01T07:08:27.537Z,6.25
2022-09-01T07:12:30.933Z,5.88
2022-09-01T07:13:35.537Z,4.43
2022-09-01T07:17:26.458Z,5.75
2022-09-01T07:18:29.379Z,4.85
2022-09-01T07:19:48.882Z,5.97
2022-09-01T07:23:47.323Z,4.55
2022-09-01T07:25:16.743Z,6.03
2022-09-01T07:27:50.588Z,5.57
2022-09-01T07:29:01.129Z,6.80
2022-09-01T07:30:03.466Z,5.18
2022-09-01T07:32:47.616Z,6.68
2022-09-01T07:35:14.677Z,5.22
2022-09-01T07:36:26.999Z,8.25
2022-09-01T07:42:32.152Z,5.20
2022-09-01T07:42:55.517Z,5.00
2022-09-01T07:42:56.480Z,4.50
2022-09-01T07:43:28.297Z,5.65
2022-09-01T07:44:33.404Z,4.57
2022-09-01T07:45:47.132Z,5.25
2022-09-01T07:47:19.582Z,5.45
2022-09-01T07:52:25.694Z,4.00
2022-09-01T07:53:33.329Z,5.18
2022-09-01T07:54:37.287Z,5.35
2022-09-01T07:55:44.057Z,5.60
2022-09-01T07:56:45.786Z,4.32
2022-09-01T07:57:47.525Z,6.38
2022-09-01T07:58:50.807Z,5.28
2022-09-01T07:59:55.687Z,6.47
2022-09-01T08:01:00.108Z,6.30
2022-09-01T08:02:05.266Z,5.40
2022-09-01T08:03:06.976Z,5.10
2022-09-01T08:04:08.649Z,5.22
2022-09-01T08:05:14.436Z,6.47
2022-09-01T08:06:19.458Z,5.80
2022-09-01T08:07:20.975Z,4.18
2022-09-01T08:08:26.387Z,4.53
2022-09-01T08:09:37.546Z,4.65
2022-09-01T08:10:42.096Z,4.55
2022-09-01T08:12:01.558Z,3.85
2022-09-01T08:13:03.536Z,4.55
2022-09-01T08:14:06.129Z,4.55
2022-09-01T08:16:39.324Z,5.35
2022-09-01T08:17:58.365Z,7.93
2022-09-01T08:19:00.246Z,7.25
2022-09-01T08:20:03.214Z,4.20
2022-09-01T08:21:10.033Z,4.78
2022-09-01T08:22:11.486Z,4.40
2022-09-01T08:23:18.362Z,4.90
2022-09-01T08:24:19.847Z,3.75
2022-09-01T08:25:24.744Z,6.35
2022-09-01T08:26:27.386Z,4.80
2022-09-01T08:27:28.951Z,4.95
2022-09-01T08:28:30.580Z,4.18
2022-09-01T08:29:32.326Z,4.50
2022-09-01T08:30:35.706Z,5.30
2022-09-01T08:31:37.384Z,5.00
2022-09-01T08:32:42.279Z,5.95
2022-09-01T08:33:47.353Z,5.32
2022-09-01T08:34:48.848Z,4.70
2022-09-01T08:35:50.379Z,6.40
2022-09-01T08:36:52.787Z,4.55
2022-09-01T08:37:54.303Z,4.35
2022-09-01T08:38:55.911Z,4.75
2022-09-01T08:39:57.451Z,4.20
2022-09-01T08:40:59.583Z,4.72
2022-09-01T08:42:24.725Z,4.43
2022-09-01T08:43:45.523Z,4.72
2022-09-01T08:44:56.915Z,4.97
2022-09-01T08:46:22.887Z,5.07
2022-09-01T08:47:35.449Z,4.63
2022-09-01T08:50:20.683Z,4.95
2022-09-01T08:51:25.074Z,5.25
2022-09-01T08:52:33.949Z,4.60
2022-09-01T08:54:51.028Z,5.07
2022-09-01T08:55:56.694Z,4.68
2022-09-01T08:57:05.283Z,4.45
2022-09-01T08:58:10.390Z,5.03
2022-09-01T08:59:12.824Z,5.85
2022-09-01T09:00:20.245Z,5.32
2022-09-01T09:01:55.343Z,5.15
2022-09-01T09:03:47.670Z,4.40
2022-09-01T09:04:55.180Z,5.85
2022-09-01T09:06:21.759Z,4.97
2022-09-01T09:08:08.282Z,6.10
2022-09-01T09:09:10.595Z,5.28
2022-09-01T09:10:19.408Z,4.40
2022-09-01T09:11:34.925Z,5.38
2022-09-01T09:13:03.380Z,4.75
2022-09-01T09:14:26.092Z,4.65
2022-09-01T09:16:07.376Z,4.80
2022-09-01T09:17:09.796Z,4.13
2022-09-01T09:18:40.007Z,4.85
2022-09-01T09:19:44.590Z,4.70
2022-09-01T09:20:46.116Z,5.53
2022-09-01T09:21:50.783Z,4.28
2022-09-01T09:22:53.766Z,4.82
2022-09-01T09:24:06.754Z,4.55
2022-09-01T09:25:19.207Z,4.00
2022-09-01T09:26:22.296Z,6.70
2022-09-01T09:28:31.672Z,4.00
2022-09-01T09:29:33.180Z,4.68
2022-09-01T09:30:34.982Z,4.85
2022-09-01T09:31:49.983Z,3.80
2022-09-01T09:34:27.708Z,4.45
2022-09-01T09:35:37.200Z,4.25
2022-09-01T09:36:38.678Z,5.53
2022-09-01T09:37:40.146Z,4.32
2022-09-01T09:38:41.772Z,4.50
2022-09-01T09:39:44.448Z,4.35
2022-09-01T09:41:16.501Z,4.32
2022-09-01T09:42:20.140Z,4.90
2022-09-01T09:43:25.482Z,4.10
2022-09-01T09:44:32.891Z,4.13
2022-09-01T09:45:42.047Z,4.13
2022-09-01T09:46:47.464Z,4.70
2022-09-01T09:47:49.578Z,3.80
2022-09-01T09:49:09.379Z,4.47
2022-09-01T09:50:23.038Z,4.47
2022-09-01T09:51:28.894Z,4.70
2022-09-01T09:52:31.194Z,5.55
2022-09-01T09:53:32.898Z,3.92
2022-09-01T09:54:37.023Z,3.85
2022-09-01T09:56:10.363Z,4.40
2022-09-01T09:58:17.786Z,4.53
2022-09-01T09:59:57.226Z,3.85
2022-09-01T10:01:05.180Z,4.70
2022-09-01T10:02:28.398Z,4.32
2022-09-01T10:03:51.336Z,3.58
2022-09-01T10:04:55.816Z,4.53
2022-09-01T10:05:57.576Z,4.03
2022-09-01T10:06:59.154Z,4.22
2022-09-01T10:08:01.034Z,3.92
2022-09-01T10:09:15.025Z,4.22
2022-09-01T10:10:40.415Z,4.22
2022-09-01T10:11:51.485Z,4.57
2022-09-01T10:12:54.338Z,4.00
2022-09-01T10:15:12.732Z,4.25
2022-09-01T10:16:32.027Z,3.90
2022-09-01T10:17:43.696Z,3.67
2022-09-01T10:18:46.566Z,4.38
2022-09-01T10:19:55.758Z,5.47
2022-09-01T10:20:57.212Z,5.43
2022-09-01T10:21:58.753Z,4.93
2022-09-01T10:23:03.813Z,4.50
2022-09-01T10:24:30.949Z,3.88
2022-09-01T10:26:41.018Z,4.00
2022-09-01T10:27:47.576Z,4.53
2022-09-01T10:29:25.629Z,4.88
2022-09-01T10:30:29.228Z,3.97
2022-09-01T10:31:32.747Z,4.88
2022-09-01T10:32:49.196Z,4.63
2022-09-01T10:33:53.051Z,4.10
2022-09-01T10:34:56.171Z,5.75
2022-09-01T10:36:01.222Z,4.15
2022-09-01T10:37:11.408Z,4.00
2022-09-01T10:38:20.652Z,5.25
2022-09-01T10:39:28.432Z,4.88
2022-09-01T10:40:44.593Z,4.43
2022-09-01T10:42:00.194Z,4.80
2022-09-01T10:43:30.677Z,5.38
2022-09-01T10:44:56.247Z,4.93
2022-09-01T10:46:06.002Z,4.03
2022-09-01T10:47:30.092Z,5.47
2022-09-01T10:48:45.485Z,4.18
2022-09-01T10:49:47.979Z,4.95
2022-09-01T10:51:09.696Z,5.15
2022-09-01T10:52:41.199Z,4.43
2022-09-01T10:53:54.237Z,4.88
2022-09-01T10:55:01.191Z,5.18
2022-09-01T10:56:20.138Z,5.65
2022-09-01T10:57:42.389Z,5.80
2022-09-01T11:00:41.473Z,5.18
2022-09-01T11:01:48.898Z,4.35
2022-09-01T11:04:37.282Z,4.97
2022-09-01T11:06:13.201Z,6.05
2022-09-01T11:07:29.653Z,5.15
2022-09-01T11:08:57.003Z,4.55
2022-09-01T11:10:36.083Z,4.18
2022-09-01T11:11:48.913Z,4.60
2022-09-01T11:13:04.828Z,4.40
2022-09-01T11:14:22.947Z,4.20
2022-09-01T11:15:41.220Z,4.25
2022-09-01T11:16:47.806Z,5.00
2022-09-01T11:17:50.589Z,5.10
2022-09-01T11:18:52.574Z,4.55
2022-09-01T11:19:55.522Z,5.15
2022-09-01T11:21:23.927Z,5.03
2022-09-01T11:22:28.265Z,5.00
2022-09-01T11:23:31.425Z,4.45
2022-09-01T11:24:38.867Z,3.80
2022-09-01T11:27:13.007Z,4.70
2022-09-01T11:28:23.822Z,4.22
2022-09-01T11:29:55.922Z,4.68
2022-09-01T11:31:06.603Z,7.28
2022-09-01T11:32:09.172Z,4.72
2022-09-01T11:33:16.560Z,5.80
2022-09-01T11:34:20.427Z,6.38
2022-09-01T11:35:25.402Z,7.60
2022-09-01T11:36:37.743Z,5.32
2022-09-01T11:37:40.326Z,4.30
2022-09-01T11:38:55.228Z,5.15
2022-09-01T11:40:07.778Z,4.28
2022-09-01T11:41:09.416Z,4.55
2022-09-01T11:42:32.394Z,4.70
2022-09-01T11:43:35.929Z,5.07
2022-09-01T11:44:59.301Z,4.82
2022-09-01T11:46:22.007Z,6.85
2022-09-01T11:47:30.027Z,4.38
2022-09-01T11:48:31.597Z,4.47
2022-09-01T11:49:40.326Z,4.55
2022-09-01T11:50:43.051Z,4.25
2022-09-01T11:51:47.975Z,5.28
2022-09-01T11:52:59.140Z,5.30
2022-09-01T11:54:02.949Z,6.78
2022-09-01T11:55:07.088Z,4.35
2022-09-01T11:56:28.078Z,6.88
2022-09-01T11:57:29.995Z,5.05
2022-09-01T11:58:39.115Z,4.80
2022-09-01T11:59:40.619Z,4.45
2022-09-01T12:00:42.621Z,4.55
2022-09-01T12:01:44.665Z,5.10
2022-09-01T12:02:49.987Z,4.60
2022-09-01T12:03:52.870Z,6.78
2022-09-01T12:06:05.988Z,4.88
2022-09-01T12:07:11.419Z,4.70
2022-09-01T12:08:18.338Z,5.30
2022-09-01T12:09:41.564Z,6.53
2022-09-01T12:10:45.395Z,5.07
2022-09-01T12:11:46.881Z,5.43
2022-09-01T12:12:48.490Z,4.03
2022-09-01T12:14:10.360Z,4.95
2022-09-01T12:15:23.028Z,7.43
2022-09-01T12:16:24.639Z,5.03
2022-09-01T12:17:27.077Z,4.82
2022-09-01T12:18:35.913Z,5.60
2022-09-01T12:19:39.395Z,4.45
2022-09-01T12:20:41.299Z,6.78
2022-09-01T12:21:43.986Z,6.40
2022-09-01T12:22:46.031Z,5.25
2022-09-01T12:23:47.995Z,5.85
2022-09-01T12:24:53.178Z,5.00
2022-09-01T12:26:01.379Z,5.22
2022-09-01T12:27:03.326Z,5.70
2022-09-01T12:28:10.995Z,4.60
2022-09-01T12:29:16.650Z,5.00
2022-09-01T12:30:19.780Z,6.45
2022-09-01T12:31:26.823Z,6.35
2022-09-01T12:32:28.547Z,4.82
2022-09-01T12:33:30.429Z,4.43
2022-09-01T12:34:42.780Z,4.82
2022-09-01T12:35:45.448Z,4.43
2022-09-01T12:37:08.249Z,4.78
2022-09-01T12:38:18.784Z,5.25
2022-09-01T12:39:24.274Z,4.60
2022-09-01T12:40:35.986Z,4.88
2022-09-01T12:41:40.034Z,5.07
2022-09-01T12:42:49.940Z,7.03
2022-09-01T12:43:54.769Z,4.82
2022-09-01T12:44:58.659Z,4.90
2022-09-01T12:46:02.890Z,4.88
2022-09-01T12:47:13.575Z,6.10
2022-09-01T12:48:33.863Z,4.75
2022-09-01T12:49:50.661Z,5.63
2022-09-01T12:50:53.711Z,4.47
2022-09-01T12:53:20.653Z,7.10
2022-09-01T12:54:26.158Z,4.53
2022-09-01T12:55:47.660Z,5.03
2022-09-01T12:56:51.401Z,6.35
2022-09-01T12:57:55.650Z,5.15
2022-09-01T12:59:15.792Z,6.35
2022-09-01T13:00:23.262Z,4.88
2022-09-01T13:01:30.685Z,5.32
2022-09-01T13:02:36.866Z,5.80
2022-09-01T13:03:38.636Z,5.15
2022-09-01T13:04:42.383Z,4.47
2022-09-01T13:05:47.161Z,4.38
2022-09-01T13:06:49.837Z,6.07
2022-09-01T13:07:56.890Z,4.43
2022-09-01T13:08:58.386Z,7.15
2022-09-01T13:10:00.349Z,5.22
2022-09-01T13:11:03.782Z,5.50
2022-09-01T13:12:21.781Z,4.90
2022-09-01T13:13:25.268Z,5.38
2022-09-01T13:14:26.790Z,5.10
2022-09-01T13:15:28.746Z,5.72
2022-09-01T13:16:30.482Z,5.25
2022-09-01T13:17:32.396Z,5.32
2022-09-01T13:19:10.373Z,4.68
2022-09-01T13:19:55.800Z,6.18
2022-09-01T13:20:58.480Z,5.22
2022-09-01T13:22:00.359Z,5.78
2022-09-01T13:23:02.398Z,4.85
2022-09-01T13:24:07.228Z,5.53
2022-09-01T13:25:11.297Z,5.63
2022-09-01T13:26:12.752Z,4.63
2022-09-01T13:27:22.540Z,5.30
2022-09-01T13:29:32.421Z,4.60
2022-09-01T13:30:34.447Z,5.05
2022-09-01T13:31:36.371Z,6.18
2022-09-01T13:33:18.739Z,5.03
2022-09-01T13:34:21.968Z,4.28
2022-09-01T13:35:23.084Z,4.78
2022-09-01T13:37:47.425Z,5.20
2022-09-01T13:38:50.736Z,5.75
2022-09-01T13:39:57.401Z,6.57
2022-09-01T13:41:02.121Z,6.13
2022-09-01T13:42:03.671Z,5.15
2022-09-01T13:43:06.214Z,4.80
2022-09-01T13:44:09.944Z,5.32
2022-09-01T13:45:13.567Z,5.45
2022-09-01T13:46:15.165Z,4.70
2022-09-01T13:47:32.058Z,4.65
2022-09-01T13:50:13.510Z,5.88
2022-09-01T13:51:28.607Z,4.43
2022-09-01T13:52:30.067Z,5.13
2022-09-01T13:53:31.783Z,4.00
2022-09-01T13:54:33.466Z,5.55
2022-09-01T13:55:39.694Z,5.72
2022-09-01T13:56:41.196Z,5.35
2022-09-01T13:57:42.682Z,4.53
2022-09-01T13:58:44.167Z,5.63
2022-09-01T13:59:47.811Z,4.10
2022-09-01T14:00:51.256Z,4.32
2022-09-01T14:01:53.162Z,4.80
2022-09-01T14:02:56.989Z,4.20
2022-09-01T14:04:00.518Z,4.15
2022-09-01T14:05:02.558Z,4.20
2022-09-01T14:06:06.062Z,4.80
2022-09-01T14:07:07.587Z,5.95
2022-09-01T14:08:11.060Z,3.85
2022-09-01T14:09:17.482Z,4.68
2022-09-01T14:10:20.906Z,5.10
2022-09-01T14:11:22.551Z,3.70
2022-09-01T14:12:24.406Z,3.88
2022-09-01T14:13:27.641Z,4.50
2022-09-01T14:15:10.993Z,5.38
2022-09-01T14:15:53.421Z,4.43
2022-09-01T14:16:55.100Z,4.00
2022-09-01T14:17:58.126Z,3.85
2022-09-01T14:19:02.602Z,4.13
2022-09-01T14:20:06.959Z,4.22
2022-09-01T14:21:16.061Z,4.90
2022-09-01T14:22:17.664Z,4.40
2022-09-01T14:23:20.180Z,4.63
2022-09-01T14:24:22.331Z,5.72
2022-09-01T14:25:24.346Z,4.85
2022-09-01T14:26:28.241Z,4.72
2022-09-01T14:27:29.776Z,4.68
2022-09-01T14:28:31.262Z,3.88
2022-09-01T14:29:32.761Z,5.05
2022-09-01T14:30:34.476Z,5.45
2022-09-01T14:31:38.101Z,4.57
2022-09-01T14:32:39.815Z,4.45
2022-09-01T14:33:42.189Z,5.07
2022-09-01T14:34:45.090Z,4.57
2022-09-01T14:35:48.523Z,4.55
2022-09-01T14:36:53.018Z,4.57
2022-09-01T14:37:55.809Z,4.30
2022-09-01T14:39:58.665Z,4.50
2022-09-01T14:41:01.106Z,4.10
2022-09-01T14:42:04.033Z,4.70
2022-09-01T14:43:09.698Z,6.07
2022-09-01T14:44:11.212Z,4.72
2022-09-01T14:45:15.561Z,5.22
2022-09-01T14:46:20.235Z,4.15
2022-09-01T14:47:25.096Z,4.50
2022-09-01T14:48:26.580Z,4.75
2022-09-01T14:49:33.306Z,4.40
2022-09-01T14:50:40.059Z,4.25
2022-09-01T14:53:03.290Z,5.10
2022-09-01T14:54:05.535Z,5.13
2022-09-01T14:55:07.655Z,5.00
2022-09-01T14:56:09.142Z,4.05
2022-09-01T14:58:33.242Z,5.22
2022-09-01T14:59:36.244Z,4.15
2022-09-01T15:00:41.747Z,4.85
2022-09-01T15:01:43.355Z,4.35
2022-09-01T15:02:45.760Z,4.70
2022-09-01T15:03:48.172Z,3.92
2022-09-01T15:04:49.729Z,6.78
2022-09-01T15:05:51.364Z,4.85
2022-09-01T15:06:52.844Z,5.13
2022-09-01T15:07:54.650Z,4.68
2022-09-01T15:08:56.256Z,4.65
2022-09-01T15:10:00.341Z,4.55
2022-09-01T15:11:01.939Z,4.57
2022-09-01T15:12:03.718Z,5.00
2022-09-01T15:13:05.614Z,5.10
2022-09-01T15:14:09.270Z,5.95
2022-09-01T15:15:11.069Z,5.53
2022-09-01T15:17:22.117Z,4.28
2022-09-01T15:18:23.967Z,4.55
2022-09-01T15:19:25.419Z,4.63
2022-09-01T15:20:46.557Z,4.75
2022-09-01T15:22:50.947Z,6.07
2022-09-01T15:23:54.130Z,13.55
2022-09-01T15:24:55.606Z,16.83
2022-09-01T15:25:57.955Z,13.98
2022-09-01T15:26:59.576Z,7.30
2022-09-01T15:28:01.755Z,5.07
2022-09-01T15:29:04.797Z,4.38
2022-09-01T15:30:15.673Z,5.15
2022-09-01T15:31:19.837Z,4.68
2022-09-01T15:32:34.197Z,4.13
2022-09-01T15:33:36.011Z,4.50
2022-09-01T15:34:39.971Z,5.05
2022-09-01T15:35:41.997Z,4.65
2022-09-01T15:36:45.331Z,4.28
2022-09-01T15:37:52.099Z,5.30
2022-09-01T15:38:53.559Z,4.40